Time;durP1;ratioP1;P1;durP2;ratioP2;P2;SDS_P1;SDS_P2;PMS_P1;PMS_P2;Temp;Humidity;BMP_temperature;BMP_pressure;BME280_temperature;BME280_humidity;BME280_pressure;Samples;Min_cycle;Max_cycle;Signal;HPM_P1;HPM_P2
2022/09/26 00:02:05;;;;;;;13.10;8.07;;;;;;;10.30;100.00;95751.25;5022250;28;20038;-76
2022/09/26 00:04:31;;;;;;;14.87;8.70;;;;;;;10.33;100.00;95754.34;5022396;28;20056;-76
2022/09/26 00:06:57;;;;;;;13.73;8.40;;;;;;;10.26;100.00;95748.13;5030744;28;20066;-74
2022/09/26 00:09:24;;;;;;;17.83;9.03;;;;;;;10.32;100.00;95751.88;5025250;28;20545;-77
2022/09/26 00:11:51;;;;;;;14.57;9.17;;;;;;;10.23;100.00;95740.56;5024654;28;20025;-77
2022/09/26 00:14:20;;;;;;;14.13;7.97;;;;;;;10.28;100.00;95735.63;5016454;28;20037;-74
2022/09/26 00:16:46;;;;;;;13.97;9.60;;;;;;;10.28;100.00;95740.06;5008925;28;20037;-76
2022/09/26 00:19:11;;;;;;;12.70;8.30;;;;;;;10.31;100.00;95731.84;5016550;28;20094;-76
2022/09/26 00:21:37;;;;;;;15.97;9.03;;;;;;;10.30;100.00;95741.53;5025271;28;20087;-73
2022/09/26 00:24:03;;;;;;;17.00;8.53;;;;;;;10.21;100.00;95741.72;5019678;28;20240;-77
2022/09/26 00:26:31;;;;;;;13.97;8.87;;;;;;;10.26;100.00;95734.16;5027901;28;20045;-77
2022/09/26 00:28:59;;;;;;;17.43;8.60;;;;;;;10.23;100.00;95735.31;5024823;28;20145;-77
2022/09/26 00:31:28;;;;;;;12.57;8.63;;;;;;;10.24;100.00;95733.50;4992971;28;20030;-76
2022/09/26 00:33:55;;;;;;;15.80;8.17;;;;;;;10.27;100.00;95735.81;5027822;28;20514;-74
2022/09/26 00:36:22;;;;;;;14.37;8.93;;;;;;;10.23;100.00;95729.19;5016193;28;20041;-74
2022/09/26 00:38:47;;;;;;;14.63;8.37;;;;;;;10.23;100.00;95722.16;5028141;28;20041;-77
2022/09/26 00:41:13;;;;;;;13.70;8.97;;;;;;;10.23;100.00;95718.69;5015194;28;20026;-77
2022/09/26 00:43:48;;;;;;;16.13;9.67;;;;;;;10.22;100.00;95722.31;5019959;28;20048;-76
2022/09/26 00:46:42;;;;;;;14.30;8.63;;;;;;;10.22;100.00;95728.38;5022604;28;20483;-76
2022/09/26 00:49:26;;;;;;;14.63;8.95;;;;;;;10.22;100.00;95722.31;5030527;28;20038;-77
2022/09/26 00:52:12;;;;;;;14.33;9.40;;;;;;;10.27;100.00;95725.31;5034229;28;20333;-77
2022/09/26 00:54:44;;;;;;;12.40;9.23;;;;;;;10.31;100.00;95723.97;5021327;28;20037;-77
2022/09/26 00:57:16;;;;;;;16.30;10.03;;;;;;;10.33;100.00;95720.19;5022615;28;20034;-75
2022/09/26 00:59:47;;;;;;;16.75;10.27;;;;;;;10.21;100.00;95720.69;5021544;28;20097;-73
2022/09/26 01:02:14;;;;;;;16.23;10.40;;;;;;;10.35;100.00;95714.75;5020075;28;20088;-74
2022/09/26 01:04:42;;;;;;;16.00;8.53;;;;;;;10.33;100.00;95714.13;5002321;28;20057;-76
2022/09/26 01:07:15;;;;;;;14.10;9.70;;;;;;;10.29;100.00;95710.16;5006250;28;20105;-76
2022/09/26 01:09:41;;;;;;;15.83;9.33;;;;;;;10.32;100.00;95705.38;5026698;28;20030;-75
2022/09/26 01:12:07;;;;;;;14.80;9.77;;;;;;;10.34;100.00;95708.66;5010305;28;20040;-75
2022/09/26 01:14:35;;;;;;;17.20;10.33;;;;;;;10.31;100.00;95710.81;5013138;28;20049;-74
2022/09/26 01:17:01;;;;;;;15.50;9.83;;;;;;;10.28;100.00;95709.34;5025830;28;20104;-76
2022/09/26 01:19:49;;;;;;;13.87;10.23;;;;;;;10.30;100.00;95715.28;5025608;28;20026;-76
2022/09/26 01:22:36;;;;;;;15.83;10.17;;;;;;;10.16;100.00;95713.31;5019620;28;20102;-76
2022/09/26 01:25:08;;;;;;;11.53;8.30;;;;;;;10.18;100.00;95702.63;5002287;28;20038;-76
2022/09/26 01:27:54;;;;;;;13.33;9.47;;;;;;;10.22;100.00;95707.38;5022086;28;20040;-76
2022/09/26 01:30:30;;;;;;;12.87;9.10;;;;;;;10.14;100.00;95707.41;5022546;28;20022;-76
2022/09/26 01:33:58;;;;;;;16.63;10.27;;;;;;;10.16;100.00;95708.06;5030509;28;20120;-75
2022/09/26 01:36:45;;;;;;;15.03;9.17;;;;;;;10.14;100.00;95713.47;4987810;28;20041;-75
2022/09/26 01:39:29;;;;;;;14.17;9.30;;;;;;;10.14;100.00;95710.03;5025905;28;20044;-76
2022/09/26 01:42:06;;;;;;;12.90;8.90;;;;;;;10.12;100.00;95714.63;5003218;28;20050;-74
2022/09/26 01:44:35;;;;;;;14.63;8.97;;;;;;;10.00;100.00;95714.19;5029661;28;20044;-74
2022/09/26 01:47:26;;;;;;;12.47;8.60;;;;;;;9.97;100.00;95714.50;5040267;28;20033;-76
2022/09/26 01:49:59;;;;;;;14.73;9.33;;;;;;;9.84;100.00;95714.22;5023480;28;20038;-75
2022/09/26 01:52:42;;;;;;;16.38;9.10;;;;;;;9.91;100.00;95720.44;5018583;28;20060;-75
2022/09/26 01:55:23;;;;;;;17.15;10.38;;;;;;;9.82;100.00;95711.75;5025274;28;20363;-76
2022/09/26 01:57:58;;;;;;;14.10;8.77;;;;;;;9.81;100.00;95711.91;5007926;28;20086;-74
2022/09/26 02:00:25;;;;;;;13.07;8.97;;;;;;;9.78;100.00;95714.88;5057098;28;20057;-75
2022/09/26 02:02:56;;;;;;;13.60;9.27;;;;;;;9.82;100.00;95714.38;5004744;28;20085;-75
2022/09/26 02:05:37;;;;;;;11.43;8.63;;;;;;;9.70;100.00;95714.91;5023196;28;20041;-76
2022/09/26 02:08:13;;;;;;;12.40;9.10;;;;;;;9.68;100.00;95720.31;5060101;28;20510;-75
2022/09/26 02:10:45;;;;;;;19.37;9.80;;;;;;;9.60;100.00;95722.94;5025002;28;20204;-76
2022/09/26 02:13:37;;;;;;;16.60;9.77;;;;;;;9.68;100.00;95717.69;5022202;28;20115;-76
2022/09/26 02:16:09;;;;;;;15.33;10.47;;;;;;;9.62;100.00;95713.94;5004949;28;20041;-75
2022/09/26 02:18:58;;;;;;;13.07;9.17;;;;;;;9.57;100.00;95710.97;5026455;28;20069;-75
2022/09/26 02:21:24;;;;;;;12.70;9.30;;;;;;;9.54;100.00;95710.47;5042141;28;20426;-76
2022/09/26 02:23:51;;;;;;;12.57;9.27;;;;;;;9.59;100.00;95711.63;5050953;28;20033;-75
2022/09/26 02:26:18;;;;;;;15.17;8.83;;;;;;;9.45;100.00;95710.47;5012204;28;20041;-75
2022/09/26 02:28:44;;;;;;;17.30;9.83;;;;;;;9.48;100.00;95709.34;5032295;28;20106;-75
2022/09/26 02:31:19;;;;;;;12.77;9.40;;;;;;;9.48;100.00;95705.88;5015826;28;20034;-75
2022/09/26 02:33:49;;;;;;;18.33;9.70;;;;;;;9.39;100.00;95711.16;4995318;28;20121;-76
2022/09/26 02:36:17;;;;;;;12.17;8.90;;;;;;;9.50;100.00;95711.81;5018858;28;20025;-76
2022/09/26 02:38:42;;;;;;;18.27;10.20;;;;;;;9.49;100.00;95718.88;5022931;28;20042;-75
2022/09/26 02:41:50;;;;;;;14.57;8.67;;;;;;;9.46;100.00;95711.31;5031076;28;20061;-74
2022/09/26 02:44:44;;;;;;;12.90;8.48;;;;;;;9.40;100.00;95706.72;5009588;28;20032;-74
2022/09/26 02:47:22;;;;;;;12.27;8.57;;;;;;;9.43;100.00;95701.97;5011139;28;20077;-74
2022/09/26 02:50:07;;;;;;;13.07;7.73;;;;;;;9.40;100.00;95711.97;5027883;28;20371;-75
2022/09/26 02:52:38;;;;;;;14.53;8.67;;;;;;;9.38;100.00;95703.44;5006891;28;20037;-74
2022/09/26 02:55:19;;;;;;;13.47;7.97;;;;;;;9.33;100.00;95700.50;5028361;28;20038;-74
2022/09/26 02:58:08;;;;;;;11.57;7.83;;;;;;;9.35;100.00;95690.63;5011005;28;20041;-75
2022/09/26 03:01:02;;;;;;;13.00;7.43;;;;;;;9.32;100.00;95689.19;5016909;28;20132;-75
2022/09/26 03:03:42;;;;;;;12.40;6.60;;;;;;;9.31;100.00;95686.72;5000509;28;20033;-75
2022/09/26 03:06:14;;;;;;;9.47;5.67;;;;;;;9.33;100.00;95690.00;5008104;28;20049;-74
2022/09/26 03:08:45;;;;;;;12.07;6.43;;;;;;;9.28;100.00;95694.91;5018815;28;20850;-74
2022/09/26 03:11:17;;;;;;;8.50;6.03;;;;;;;9.28;100.00;95692.28;5013854;28;20120;-75
2022/09/26 03:13:44;;;;;;;14.80;6.03;;;;;;;9.23;100.00;95684.91;5027693;28;20037;-75
2022/09/26 03:16:13;;;;;;;10.23;6.33;;;;;;;9.15;100.00;95683.13;5000046;28;20484;-75
2022/09/26 03:18:52;;;;;;;11.73;5.53;;;;;;;9.14;100.00;95675.41;5011880;28;20037;-75
2022/09/26 03:21:19;;;;;;;10.60;6.00;;;;;;;9.14;100.00;95681.47;5020896;28;20034;-75
2022/09/26 03:23:45;;;;;;;10.63;5.00;;;;;;;9.11;100.00;95679.16;5013634;28;20029;-75
2022/09/26 03:26:16;;;;;;;11.30;5.77;;;;;;;9.05;100.00;95677.19;5017861;28;20044;-75
2022/09/26 03:28:52;;;;;;;8.53;6.37;;;;;;;9.06;100.00;95681.47;5011727;28;20491;-74
2022/09/26 03:31:20;;;;;;;14.63;6.40;;;;;;;8.97;100.00;95674.56;5008534;28;20037;-75
2022/09/26 03:34:05;;;;;;;10.73;6.43;;;;;;;8.89;100.00;95662.28;5008415;28;20049;-75
2022/09/26 03:36:31;;;;;;;9.63;5.57;;;;;;;8.94;100.00;95664.41;5044008;28;20029;-75
2022/09/26 03:38:58;;;;;;;15.03;7.00;;;;;;;8.92;100.00;95653.25;5008787;28;20517;-75
2022/09/26 03:41:44;;;;;;;14.37;7.10;;;;;;;8.91;100.00;95660.28;5009746;28;20116;-75
2022/09/26 03:44:30;;;;;;;10.93;7.07;;;;;;;8.89;100.00;95648.34;5021623;28;20038;-74
2022/09/26 03:47:17;;;;;;;50.07;24.90;;;;;;;8.89;100.00;95653.59;5046325;28;20034;-75
2022/09/26 03:49:46;;;;;;;80.07;40.47;;;;;;;8.86;100.00;95644.25;5000380;28;20037;-74
2022/09/26 03:52:13;;;;;;;66.40;31.27;;;;;;;8.89;100.00;95649.16;5010186;28;20038;-75
2022/09/26 03:54:39;;;;;;;25.03;13.37;;;;;;;8.88;100.00;95638.81;5015403;28;20025;-74
2022/09/26 03:57:05;;;;;;;19.00;9.20;;;;;;;8.94;100.00;95632.94;5018086;28;20053;-74
2022/09/26 03:59:35;;;;;;;15.37;8.30;;;;;;;8.90;100.00;95629.81;5015560;28;20033;-74
2022/09/26 04:02:01;;;;;;;13.60;8.57;;;;;;;8.86;100.00;95639.00;5011873;28;20029;-74
2022/09/26 04:04:28;;;;;;;16.93;9.63;;;;;;;8.82;100.00;95626.38;5023010;28;20036;-75
2022/09/26 04:06:53;;;;;;;19.20;10.77;;;;;;;8.81;100.00;95624.75;5013421;28;20037;-75
2022/09/26 04:09:19;;;;;;;16.17;11.80;;;;;;;8.84;100.00;95627.84;5026385;28;20022;-74
2022/09/26 04:11:49;;;;;;;19.30;11.73;;;;;;;8.82;100.00;95627.22;5017768;28;20041;-75
2022/09/26 04:14:16;;;;;;;17.10;10.70;;;;;;;8.84;100.00;95634.91;5013085;28;20025;-75
2022/09/26 04:16:43;;;;;;;15.50;11.37;;;;;;;8.82;100.00;95629.00;5019122;28;20083;-75
2022/09/26 04:19:35;;;;;;;16.20;11.27;;;;;;;8.85;100.00;95624.25;5010765;28;20069;-75
2022/09/26 04:22:01;;;;;;;16.10;11.53;;;;;;;8.81;100.00;95624.75;5006819;28;20029;-75
2022/09/26 04:24:31;;;;;;;18.27;12.07;;;;;;;8.82;100.00;95621.13;5003912;28;20021;-75
2022/09/26 04:26:58;;;;;;;15.17;12.13;;;;;;;8.81;100.00;95616.88;5016728;28;20037;-75
2022/09/26 04:29:25;;;;;;;24.10;13.03;;;;;;;8.83;100.00;95614.91;4996238;28;20022;-77
2022/09/26 04:32:06;;;;;;;15.10;11.17;;;;;;;8.79;100.00;95618.84;5021347;28;20033;-75
2022/09/26 04:35:05;;;;;;;17.23;10.87;;;;;;;8.73;100.00;95615.06;5024884;28;20060;-75
2022/09/26 04:37:32;;;;;;;17.87;11.70;;;;;;;8.80;100.00;95615.25;5018680;28;20390;-76
2022/09/26 04:39:57;;;;;;;15.97;11.90;;;;;;;8.71;100.00;95612.59;5000368;28;20033;-75
2022/09/26 04:42:24;;;;;;;18.77;13.07;;;;;;;8.70;100.00;95610.97;5007538;28;20026;-75
2022/09/26 04:44:50;;;;;;;19.53;11.37;;;;;;;8.67;100.00;95606.03;5021991;28;20108;-76
2022/09/26 04:47:16;;;;;;;16.93;11.53;;;;;;;8.59;100.00;95603.44;5017592;28;20030;-74
2022/09/26 04:50:00;;;;;;;18.93;12.60;;;;;;;8.60;100.00;95604.25;5019633;28;20052;-75
2022/09/26 04:52:26;;;;;;;21.80;13.57;;;;;;;8.59;100.00;95605.25;5013221;28;20406;-75
2022/09/26 04:54:52;;;;;;;18.03;12.53;;;;;;;8.57;100.00;95600.16;5013417;28;20030;-74
2022/09/26 04:57:18;;;;;;;16.73;11.93;;;;;;;8.56;100.00;95598.50;5022120;28;20026;-75
2022/09/26 04:59:44;;;;;;;15.40;11.03;;;;;;;8.51;100.00;95595.53;5000410;28;20433;-75
2022/09/26 05:02:11;;;;;;;16.60;12.90;;;;;;;8.60;100.00;95599.00;4993978;28;20506;-75
2022/09/26 05:04:40;;;;;;;17.27;12.37;;;;;;;8.56;100.00;95598.50;5022684;28;20076;-74
2022/09/26 05:07:06;;;;;;;15.43;11.13;;;;;;;8.56;100.00;95598.50;5020984;28;20029;-74
2022/09/26 05:09:32;;;;;;;16.10;11.03;;;;;;;8.52;100.00;95583.25;5016168;28;20033;-74
2022/09/26 05:12:01;;;;;;;15.97;11.00;;;;;;;8.45;100.00;95590.94;5014789;28;20026;-74
2022/09/26 05:14:27;;;;;;;16.77;10.93;;;;;;;8.44;100.00;95595.38;5030619;28;20087;-75
2022/09/26 05:16:52;;;;;;;15.57;10.50;;;;;;;8.44;100.00;95598.00;5021158;28;20160;-75
2022/09/26 05:19:20;;;;;;;16.40;10.90;;;;;;;8.38;100.00;95589.97;5019569;28;20114;-74
2022/09/26 05:22:14;;;;;;;16.77;11.70;;;;;;;8.36;100.00;95597.97;5017924;28;20056;-74
2022/09/26 05:27:24;;;;;;;20.70;13.40;;;;;;;8.32;100.00;95585.34;5011662;28;20029;-75
2022/09/26 05:29:54;;;;;;;18.67;12.53;;;;;;;8.28;100.00;95584.81;4995482;28;20040;-74
2022/09/26 05:32:20;;;;;;;20.53;13.20;;;;;;;8.34;100.00;95580.75;5002234;28;20049;-74
2022/09/26 05:34:48;;;;;;;17.73;13.33;;;;;;;8.37;100.00;95588.28;5019982;28;20662;-75
2022/09/26 05:37:16;;;;;;;18.53;12.93;;;;;;;8.37;100.00;95590.91;5011209;28;20112;-74
2022/09/26 05:42:28;;;;;;;20.53;12.80;;;;;;;8.40;100.00;95591.44;5013954;28;20224;-75
2022/09/26 05:44:54;;;;;;;18.10;12.83;;;;;;;8.41;100.00;95584.41;5025974;28;20493;-75
2022/09/26 05:47:20;;;;;;;16.30;12.70;;;;;;;8.44;100.00;95586.69;5020031;28;20038;-75
2022/09/26 05:49:47;;;;;;;16.57;11.67;;;;;;;8.56;100.00;95587.22;5000486;28;20124;-74
2022/09/26 05:52:15;;;;;;;19.63;12.27;;;;;;;8.55;100.00;95588.19;5035720;28;20033;-74
2022/09/26 05:54:41;;;;;;;16.20;11.80;;;;;;;8.56;100.00;95574.94;5020396;28;20052;-74
2022/09/26 05:57:27;;;;;;;19.80;12.53;;;;;;;8.61;100.00;95579.66;5010959;28;20045;-75
2022/09/26 05:59:54;;;;;;;15.47;11.37;;;;;;;8.63;100.00;95581.16;4997063;28;20399;-75
2022/09/26 06:02:22;;;;;;;18.03;12.97;;;;;;;8.66;100.00;95583.44;5016892;28;20120;-74
2022/09/26 06:05:08;;;;;;;18.93;12.90;;;;;;;8.61;100.00;95580.47;5011993;28;20044;-74
2022/09/26 06:07:44;;;;;;;21.23;12.47;;;;;;;8.59;100.00;95576.41;5013352;28;20044;-75
2022/09/26 06:10:15;;;;;;;16.87;12.53;;;;;;;8.62;100.00;95586.56;5008137;28;20026;-75
2022/09/26 06:13:02;;;;;;;20.13;12.03;;;;;;;8.67;100.00;95586.88;5024768;28;20033;-79
2022/09/26 06:15:30;;;;;;;17.43;12.60;;;;;;;8.73;100.00;95575.75;4996002;28;20041;-75
2022/09/26 06:18:00;;;;;;;22.77;13.77;;;;;;;8.80;100.00;95581.16;5006049;28;20030;-75
2022/09/26 06:20:26;;;;;;;18.57;13.17;;;;;;;9.15;100.00;95580.81;5012202;28;20068;-73
2022/09/26 06:22:53;;;;;;;18.90;12.90;;;;;;;9.67;100.00;95571.66;5005556;28;20041;-74
2022/09/26 06:25:19;;;;;;;18.57;12.70;;;;;;;10.29;100.00;95563.81;5001643;28;20038;-74
2022/09/26 06:27:46;;;;;;;17.80;12.67;;;;;;;10.53;100.00;95557.59;5021820;28;20029;-75
2022/09/26 06:30:12;;;;;;;19.17;11.50;;;;;;;10.65;100.00;95551.91;5003279;28;20465;-72
2022/09/26 06:32:39;;;;;;;17.33;12.00;;;;;;;10.43;100.00;95550.91;5022242;28;20052;-75
2022/09/26 06:35:18;;;;;;;16.50;11.07;;;;;;;10.48;100.00;95552.03;5040530;28;20028;-73
2022/09/26 06:37:58;;;;;;;23.33;10.97;;;;;;;10.28;100.00;95548.22;5022273;28;20625;-76
2022/09/26 06:40:24;;;;;;;17.87;11.33;;;;;;;10.34;100.00;95547.53;5001321;28;20538;-76
2022/09/26 06:42:50;;;;;;;16.77;10.67;;;;;;;10.04;100.00;95544.72;5035538;28;20084;-75
2022/09/26 06:45:42;;;;;;;19.43;11.57;;;;;;;10.10;100.00;95540.59;5004053;28;20040;-76
2022/09/26 06:48:17;;;;;;;16.05;9.88;;;;;;;10.05;100.00;95537.66;5008714;28;20042;-76
2022/09/26 06:50:59;;;;;;;16.00;11.23;;;;;;;10.04;100.00;95542.09;5012782;28;20576;-76
2022/09/26 06:53:26;;;;;;;17.70;12.07;;;;;;;9.89;100.00;95541.19;5019898;28;20049;-75
2022/09/26 06:55:52;;;;;;;16.50;12.30;;;;;;;10.12;100.00;95536.78;5011851;28;20084;-75
2022/09/26 06:58:18;;;;;;;14.97;11.53;;;;;;;11.09;100.00;95518.63;4989936;28;20117;-76
2022/09/26 07:00:55;;;;;;;19.73;11.03;;;;;;;11.01;100.00;95518.72;5037794;28;20561;-76
2022/09/26 07:03:39;;;;;;;15.97;10.70;;;;;;;10.76;100.00;95518.09;5019624;28;20939;-76
2022/09/26 07:06:23;;;;;;;14.33;9.70;;;;;;;10.45;100.00;95520.84;4994894;28;20041;-76
2022/09/26 07:08:51;;;;;;;15.70;10.63;;;;;;;10.70;100.00;95515.41;5011906;28;20038;-76
2022/09/26 07:11:20;;;;;;;15.27;10.80;;;;;;;11.12;100.00;95511.38;4990252;28;20034;-75
2022/09/26 07:13:46;;;;;;;13.00;9.33;;;;;;;11.19;100.00;95504.41;5005912;28;20044;-77
2022/09/26 07:16:12;;;;;;;15.23;9.37;;;;;;;11.17;100.00;95501.16;5008064;28;20026;-76
2022/09/26 07:18:50;;;;;;;13.77;9.60;;;;;;;11.80;100.00;95492.66;5007575;28;20030;-78
2022/09/26 07:21:27;;;;;;;16.67;8.87;;;;;;;12.19;100.00;95491.47;5011898;28;20037;-76
2022/09/26 07:24:04;;;;;;;13.67;8.83;;;;;;;13.43;100.00;95476.00;5004754;28;20127;-75
2022/09/26 07:26:31;;;;;;;13.17;7.83;;;;;;;13.78;100.00;95473.34;5004288;28;20065;-75
2022/09/26 07:28:56;;;;;;;12.43;7.87;;;;;;;14.19;100.00;95466.34;5016371;28;20064;-75
2022/09/26 07:31:25;;;;;;;11.07;6.27;;;;;;;13.33;100.00;95472.91;5011633;28;20461;-75
2022/09/26 07:34:12;;;;;;;10.43;7.10;;;;;;;12.72;100.00;95470.03;5003610;28;20116;-75
2022/09/26 07:36:39;;;;;;;11.13;7.10;;;;;;;12.62;100.00;95470.38;5007965;28;20040;-76
2022/09/26 07:39:05;;;;;;;10.63;6.30;;;;;;;13.28;100.00;95464.78;5035654;28;20033;-75
2022/09/26 07:41:31;;;;;;;9.97;5.50;;;;;;;13.30;100.00;95462.75;5017095;28;20041;-75
2022/09/26 07:43:58;;;;;;;9.70;5.90;;;;;;;12.49;100.00;95470.25;5008076;28;20033;-75
2022/09/26 07:52:16;;;;;;;11.17;6.60;;;;;;;12.77;100.00;95470.28;5019163;28;20116;-75
2022/09/26 07:55:00;;;;;;;10.57;6.50;;;;;;;13.38;100.00;95461.75;5010880;28;20586;-75
2022/09/26 07:57:56;;;;;;;12.77;6.93;;;;;;;13.40;100.00;95457.91;5038840;28;20047;-76
2022/09/26 08:00:35;;;;;;;9.93;5.33;;;;;;;13.18;100.00;95462.44;4993386;28;20037;-79
2022/09/26 08:03:13;;;;;;;12.47;5.17;;;;;;;13.16;100.00;95463.66;5004759;28;20038;-76
2022/09/26 08:05:41;;;;;;;9.47;4.90;;;;;;;13.14;100.00;95458.53;5005468;28;20859;-75
2022/09/26 08:08:08;;;;;;;8.87;5.07;;;;;;;13.02;100.00;95464.59;4993750;28;20025;-76
2022/09/26 08:10:52;;;;;;;8.33;4.97;;;;;;;12.98;100.00;95458.88;5006446;28;20048;-76
2022/09/26 08:13:43;;;;;;;9.87;5.53;;;;;;;13.18;100.00;95459.00;5005276;28;21373;-76
2022/09/26 08:16:44;;;;;;;10.63;5.85;;;;;;;13.16;100.00;95463.66;4983199;28;20041;-76
2022/09/26 08:19:16;;;;;;;13.03;5.87;;;;;;;12.93;100.00;95456.78;5010695;28;20129;-76
2022/09/26 08:21:42;;;;;;;11.23;5.57;;;;;;;12.77;100.00;95461.53;5001190;28;20054;-77
2022/09/26 08:24:07;;;;;;;11.93;5.17;;;;;;;13.05;100.00;95459.72;5005138;28;20038;-76
2022/09/26 08:26:49;;;;;;;12.03;5.33;;;;;;;13.69;100.00;95453.38;4991033;28;20045;-75
2022/09/26 08:29:22;;;;;;;9.70;4.73;;;;;;;13.52;100.00;95460.81;5040093;28;20030;-76
2022/09/26 08:31:53;;;;;;;9.37;4.87;;;;;;;13.24;100.00;95463.50;5007291;28;20490;-76
2022/09/26 08:34:20;;;;;;;8.27;4.73;;;;;;;12.97;100.00;95463.31;5038182;28;20057;-75
2022/09/26 08:36:57;;;;;;;9.97;4.53;;;;;;;13.12;100.00;95457.13;4992925;28;20038;-75
2022/09/26 08:39:41;;;;;;;11.50;5.40;;;;;;;12.98;100.00;95458.88;5024863;28;20141;-74
2022/09/26 08:42:55;;;;;;;6.93;4.53;;;;;;;12.96;100.00;95452.97;5016481;28;20107;-74
2022/09/26 08:49:31;;;;;;;8.03;4.80;;;;;;;13.15;100.00;95454.91;5014355;28;20044;-74
2022/09/26 08:52:00;;;;;;;8.07;5.10;;;;;;;13.25;100.00;95451.97;5022244;28;20195;-73
2022/09/26 08:54:35;;;;;;;9.80;4.40;;;;;;;13.46;100.00;95456.31;5021305;28;20083;-73
2022/09/26 08:57:26;;;;;;;8.20;4.53;;;;;;;13.35;100.00;95448.97;5018194;28;20445;-74
2022/09/26 08:59:53;;;;;;;8.07;4.13;;;;;;;13.33;100.00;95449.16;5011911;28;20129;-78
2022/09/26 09:02:48;;;;;;;9.23;4.30;;;;;;;13.32;100.00;95439.59;5010405;28;20569;-72
2022/09/26 09:05:16;;;;;;;8.15;3.58;;;;;;;13.38;100.00;95438.81;5011521;28;20053;-72
2022/09/26 09:07:49;;;;;;;7.75;4.00;;;;;;;13.34;100.00;95434.91;5007093;28;20052;-74
2022/09/26 09:10:31;;;;;;;8.50;3.13;;;;;;;13.19;100.00;95435.03;5021170;28;20030;-75
2022/09/26 09:13:49;;;;;;;7.15;3.38;;;;;;;13.40;100.00;95423.56;4993062;28;20503;-74
2022/09/26 09:16:43;;;;;;;6.68;3.25;;;;;;;13.76;100.00;95422.50;5006621;28;20553;-78
2022/09/26 09:20:06;;;;;;;8.25;3.60;;;;;;;14.14;100.00;95408.75;5010063;28;20593;-75
2022/09/26 09:23:29;;;;;;;8.45;3.75;;;;;;;14.24;100.00;95408.34;5012799;28;20179;-72
2022/09/26 09:26:17;;;;;;;7.50;3.47;;;;;;;14.46;100.00;95401.06;5001260;28;20042;-74
2022/09/26 09:29:05;;;;;;;7.22;3.20;;;;;;;14.24;100.00;95389.84;5001766;28;20041;-73
2022/09/26 09:31:37;;;;;;;6.28;3.00;;;;;;;14.80;100.00;95400.84;5040445;28;20032;-73
2022/09/26 09:34:30;;;;;;;6.70;2.97;;;;;;;14.48;100.00;95399.00;5003154;28;20127;-74
2022/09/26 09:37:20;;;;;;;7.13;2.92;;;;;;;14.42;100.00;95403.31;5000758;28;20033;-73
2022/09/26 09:40:10;;;;;;;8.40;2.75;;;;;;;14.40;100.00;95394.75;5040566;28;20030;-72
2022/09/26 09:42:58;;;;;;;9.50;3.42;;;;;;;14.79;100.00;95401.88;5023492;28;20030;-73
2022/09/26 09:45:35;;;;;;;9.32;3.33;;;;;;;14.99;100.00;95396.56;5021263;28;20034;-75
2022/09/26 09:48:01;;;;;;;5.20;2.88;;;;;;;16.50;100.00;95395.22;5006855;28;20118;-73
2022/09/26 09:50:47;;;;;;;6.45;2.67;;;;;;;17.07;100.00;95398.59;5010277;28;20194;-77
2022/09/26 09:53:47;;;;;;;7.40;2.42;;;;;;;16.18;100.00;95389.91;4987890;28;20543;-78
2022/09/26 09:56:45;;;;;;;6.05;1.80;;;;;;;16.13;100.00;95379.16;5027585;28;20112;-73
2022/09/26 09:59:30;;;;;;;4.00;1.67;;;;;;;16.12;100.00;95384.66;5005586;28;20100;-73
2022/09/26 10:02:33;;;;;;;4.70;1.85;;;;;;;17.14;96.18;95385.25;5033914;28;20120;-76
2022/09/26 10:05:02;;;;;;;3.53;1.42;;;;;;;15.84;99.08;95380.56;5013941;28;20038;-74
2022/09/26 10:07:28;;;;;;;6.60;2.08;;;;;;;15.66;100.00;95375.97;4992422;28;20030;-74
2022/09/26 10:10:44;;;;;;;8.70;2.22;;;;;;;15.55;100.00;95366.78;5003436;28;20108;-75
2022/09/26 10:13:30;;;;;;;3.72;1.80;;;;;;;15.27;100.00;95369.78;5005521;28;20055;-74
2022/09/26 10:16:16;;;;;;;4.50;1.98;;;;;;;14.84;100.00;95380.06;5020784;28;20484;-74
2022/09/26 10:18:54;;;;;;;6.65;2.03;;;;;;;15.05;100.00;95381.66;4998337;28;20029;-74
2022/09/26 10:21:25;;;;;;;6.38;2.50;;;;;;;15.43;100.00;95378.28;5000352;28;20154;-77
2022/09/26 10:23:51;;;;;;;6.10;1.90;;;;;;;15.81;100.00;95375.66;5016489;28;20037;-74
2022/09/26 10:26:33;;;;;;;8.32;2.10;;;;;;;15.17;100.00;95372.06;5015623;28;20025;-74
2022/09/26 10:29:18;;;;;;;6.68;2.47;;;;;;;15.47;100.00;95366.25;4990240;28;20068;-73
2022/09/26 10:31:45;;;;;;;5.47;2.00;;;;;;;15.47;100.00;95358.28;5031010;28;20026;-74
2022/09/26 10:34:27;;;;;;;5.43;2.22;;;;;;;15.79;100.00;95362.66;5016199;28;20044;-73
2022/09/26 10:36:52;;;;;;;9.60;2.03;;;;;;;15.52;100.00;95361.09;5021924;28;20057;-73
2022/09/26 10:42:20;;;;;;;7.90;1.80;;;;;;;16.13;100.00;95352.63;5003515;28;20545;-76
2022/09/26 10:44:49;;;;;;;4.53;1.52;;;;;;;15.77;100.00;95343.47;5009032;28;20061;-79
2022/09/26 10:47:36;;;;;;;4.47;1.70;;;;;;;15.88;100.00;95349.13;5013721;28;20042;-76
2022/09/26 10:50:26;;;;;;;4.65;1.52;;;;;;;16.18;100.00;95349.31;5007458;28;20029;-76
2022/09/26 10:53:14;;;;;;;3.42;1.10;;;;;;;16.35;93.24;95354.91;5025015;28;20047;-76
2022/09/26 10:55:45;;;;;;;4.47;1.65;;;;;;;16.47;94.31;95348.69;4998730;28;20063;-77
2022/09/26 10:58:22;;;;;;;5.20;1.60;;;;;;;16.12;100.00;95340.38;5002617;28;20096;-76
2022/09/26 11:00:59;;;;;;;2.83;1.17;;;;;;;16.67;92.82;95337.88;5004673;28;20425;-76
2022/09/26 11:03:45;;;;;;;5.95;1.92;;;;;;;16.14;96.70;95329.56;5017619;28;20120;-78
2022/09/26 11:06:27;;;;;;;5.10;1.65;;;;;;;15.86;97.38;95332.59;5015841;28;20038;-77
2022/09/26 11:09:02;;;;;;;8.30;2.55;;;;;;;16.14;100.00;95325.06;5001864;28;20124;-80
2022/09/26 11:11:50;;;;;;;6.18;2.28;;;;;;;17.00;95.25;95312.03;5009561;28;20092;-76
2022/09/26 11:14:29;;;;;;;6.95;2.00;;;;;;;17.04;92.65;95313.22;4987178;28;20029;-78
2022/09/26 11:17:10;;;;;;;5.88;2.13;;;;;;;17.45;93.42;95307.19;5032257;28;20025;-76
2022/09/26 11:20:01;;;;;;;6.22;2.53;;;;;;;17.38;93.71;95299.31;5016032;28;20033;-76
2022/09/26 11:22:36;;;;;;;2.97;1.55;;;;;;;17.55;90.32;95299.50;5030028;28;20029;-78
2022/09/26 11:25:16;;;;;;;5.50;1.40;;;;;;;17.41;80.37;95290.06;5014056;28;20068;-76
2022/09/26 11:28:01;;;;;;;4.95;1.50;;;;;;;17.41;81.81;95292.75;5019736;28;20564;-76
2022/09/26 11:30:51;;;;;;;4.32;1.38;;;;;;;17.81;81.63;95282.38;5013907;28;20360;-76
2022/09/26 11:33:25;;;;;;;6.95;1.70;;;;;;;18.63;76.74;95281.63;5012208;28;20036;-80
2022/09/26 11:36:38;;;;;;;5.90;1.65;;;;;;;18.57;73.15;95269.25;5020897;28;20048;-76
2022/09/26 11:39:25;;;;;;;6.07;1.42;;;;;;;18.86;69.54;95264.03;5020146;28;20131;-78
2022/09/26 11:42:16;;;;;;;5.60;1.60;;;;;;;17.50;73.26;95264.78;5015776;28;20053;-76
2022/09/26 11:44:47;;;;;;;3.75;1.35;;;;;;;16.88;81.07;95262.31;5016213;28;20061;-76
2022/09/26 11:48:05;;;;;;;2.92;1.23;;;;;;;19.01;69.00;95241.19;5009424;28;20601;-76
2022/09/26 11:51:39;;;;;;;3.90;1.48;;;;;;;19.27;66.40;95233.69;4989561;28;20463;-77
2022/09/26 11:54:22;;;;;;;3.35;1.25;;;;;;;19.06;65.60;95222.63;4988578;28;20937;-76
2022/09/26 11:56:52;;;;;;;7.30;1.33;;;;;;;19.15;61.30;95227.56;5025578;28;20533;-76
2022/09/26 11:59:47;;;;;;;3.63;0.98;;;;;;;18.69;57.55;95221.31;5002046;28;20056;-76
2022/09/26 12:02:30;;;;;;;3.17;1.33;;;;;;;18.75;59.96;95215.09;5024128;28;20529;-77
2022/09/26 12:05:02;;;;;;;3.03;1.15;;;;;;;18.39;57.56;95216.94;5001147;28;20038;-80
2022/09/26 12:07:51;;;;;;;3.22;0.95;;;;;;;18.71;59.22;95212.06;5005939;28;20042;-76
2022/09/26 12:10:38;;;;;;;4.22;1.08;;;;;;;19.00;59.11;95210.25;4996276;28;20651;-76
2022/09/26 12:13:33;;;;;;;3.97;1.20;;;;;;;17.98;56.93;95208.06;5011099;28;20430;-76
2022/09/26 12:16:13;;;;;;;3.25;1.38;;;;;;;18.66;60.67;95198.63;5008147;28;20714;-82
2022/09/26 12:19:06;;;;;;;4.18;0.90;;;;;;;18.85;57.91;95191.31;5037936;28;20025;-77
2022/09/26 12:25:15;;;;;;;1.95;0.93;;;;;;;19.49;54.72;95181.28;5009585;28;20040;-77
2022/09/26 12:27:48;;;;;;;2.30;0.88;;;;;;;19.24;56.16;95170.19;5010562;28;20045;-76